Kaohsiung International Airport
RCKH : now visible

Airfield :











YOU CAN JOIN US ON...

 
LOGIN :

Register | Disclaimer

   EN    FR    IT 

 









Legend :    VFR   Marginal VFR   IFR   Intensive IFR   Very Intensive IFR
Visi :
Ceiling :
>= 8 km
>= 3000ft
5 to 8 km
1000 to 3000 ft
1500m to 5 km
500 to 1000 ft
800 to 1500m
200 to 500 ft
< 800m
< 200 ft
Symbols :   Thunderstorms  Fog  Heavy snow  Heavy precipitations  Wind > 20 kt







- Airport Elevation : 31 ft
- IATA code : KHH


RCKH - Kaohsiung International

CURRENT METAR :
  • 201230Z 20005KT 170V230 9999 FEW016 SCT042 26/21 Q1019 NOSIG RMK A3011

EXPIRED METARs :
  • 201200Z 20005KT 170V230 9999 FEW016 SCT038 26/21 Q1019 NOSIG RMK A3011
  • 201130Z 19004KT 150V250 9999 FEW016 SCT042 26/21 Q1019 NOSIG RMK A3010
  • 201100Z 20005KT 150V250 9999 FEW015 SCT070 26/22 Q1019 NOSIG RMK A3009
  • 201030Z 21006KT 170V240 9999 FEW015 26/22 Q1018 NOSIG RMK A3008
  • 201000Z 21009KT 150V240 9999 FEW015 27/22 Q1018 NOSIG RMK A3008

TAF TAF RCKH
Valid from the 20 at 12:00 until the 21 at 18:00 UTC


201100Z 2012/2118 17005KT 9000 FEW014 SCT030
BECMG 2013/2015 06005KT
TEMPO 2018/2024 5000 BR
BECMG 2100/2102 17012KT
TEMPO 2104/2109 21010KT
BECMG 2114/2117 14005KT FEW010 BKN024
RCAA FIR / Asia



MET'MAP, your aeronautical weather chart ! - Copyright ORBIFLY December 2007 - Disclaimer

ORBIFLY MET'MAP TEAM :

Programming & Development : Alexandra Zaïnal
Concept & Development : Baudouin d'Aumeries
Co-Development & Prog : Marc-Olivier Méhu
Technical & hardware support : Manuel Goepfert

Contact : metmap@orbifly.com




SOURCES & CREDITS :

   NOAA       Earth
Advisory